Fort Saskatchewan, Canada
Current Conditions -  °F | °C
As of 2:00 PM on Monday 24 Nov 2014 (Local Time) from CYED Reporting Station
Clear Clear  
Wind Chill: 32°   Ceiling: Unl
Heat Index: 32°   Visibility: 9mi
Dew Point: 25°   Wind: 3mph
Humidity: 75%   Direction: 230°SW
Pressure: 29.89"   Gusts: NA
Location:  53.71°N, 113.21°W
Report Text: CYED 242100Z AUTO 23003KT 9SM CLR 00/M04 A2989 RMK SLP152
Loading
Personal Weather Stations






























Interactive Weather Map New forecast layout! Learn more

10-Day Weather Forecast

Advertisements
Track Severe Weather on mobile